+ Responder Tema
Resultados 1 al 2 de 2
  1. #1
    Investigador en nómina.
    26 ene, 09

    B732 impacta contra el terreno durante la aprox. a Islamabad

    Crash: Bhoja B732 at Islamabad on Apr 20th 2012, impacted terrain on approach

    By Simon Hradecky, created Friday, Apr 20th 2012 14:44Z, last updated Friday, Apr 20th 2012 15:21Z
    A Bhoja Air Boeing 737-200, registration AP-BKD performing flight B4-213 from Karachi to Islamabad (Pakistan) with 118 passengers and 9 crew, impacted terrain about 10km short of the runway of Islamabad south of the aerodrome near Jinnah Gardens, completely broke up and burst into flames at about 18:50L (13:50Z).

    Rescue teams have been dispatched to the scene. All Islamabad hospitals have been put on alert.

    Emergency services state the chances of finding survivors are grim.

    Bhoja Air operated two Boeing 737-200s AP-BKC and AP-BKD as well as a Boeing 737-400 registration AP-BKF. Flight B4-213 was the inaugural flight on the route Karachi-Islamabad today.

    PRN 201500Z 05030KT 4000 TS FEW025CB SCT030 BKN100 20/16 Q1014.3/29.95
    OPRN 201400Z 23020KT 3000 TSRA FEW025CB SCT030 BKN100 20/16 Q1011.0/29.85
    OPRN 201300Z 23020KT 4000 TS FEW025CB SCT030 BKN100 25/15 Q1009.3/29.80
    OPRN 201220Z 23034KT 6000 HZ FEW030TCU SCT040 BKN100
    OPRN 201200Z 13022KT 6000 FEW030TCU SCT040 BKN100 31/14 Q1008.8/29.79
    OPRN 201110Z 13016KT 6000 RA FEW030TCU SCT040 BKN100
    OPRN 201110Z 23034KT 6000 HZ FEW030TCU SCT040 BKN100
    OPRN 201100Z 13016KT 6000 FEW030TCU SCT040 32/13 Q1009.1/29.79
    Tiene muy mala pinta.

  2. #2
    Usuario Foroaviones
    14 jul, 11
    Más información por si os interesa:

    Airliner crashes near Islamabad airport
    Emergency service vehicles near the site of the crash Pakistani television broadcast pictures of the wreckage and emergency services at the scene

    A plane carrying up to 127 people has crashed in a residential area near Islamabad international airport.

    Aviation officials said the Bhoja Air jet, flight BHO-213, was flying from Karachi to Islamabad when it crashed in bad weather near Chaklala, Rawalpindi.

    Emergency teams were at the crash site, reported to be near Baria Town residential complex.

    There have been no reports of any survivors and no comment from the airline.

    Reports suggest the plane, believed to be a Boeing 737 carrying 118 passengers and nine crew, was making its final approach to the airport when the crash happened.

    'Fire erupted'

    Saifur Rehman, from a police rescue team, said it came down in Hussain Abad village, two miles from the main Islamabad highway.

    He told Geo TV: "Fire erupted after the crash. The wreckage is on fire, the plane is completely destroyed.

    "We have come with teams of firefighters and searchlights and more rescuers are coming."

    The jet left Karachi at around 17:00 local time (12:00 GMT) and was due to arrive at 18:50 (13:50 GMT).

    Defence minister Chaudhry Ahmed Mukhar said it burst into flames before it came down a few miles from the airport.

    There were reports of severe rainstorms in the area at the time.

    Bhoja Air is a small new commercial airline which was started about 10 years ago but closed because of financial difficulties. It recently re-opened.
    BBC News - Airliner crashes near Islamabad airport



Temas Similares

  1. Respuestas: 10
    Último Mensaje: 01/04/2012, 18:34
  2. Pakistan Airlines Islamabad - LEBL - Chicago
    Por bede en el foro Comercial / General
    Respuestas: 17
    Último Mensaje: 29/09/2010, 15:00
  3. Respuestas: 16
    Último Mensaje: 28/07/2010, 21:03
  4. Problema con B732 Sky Airline
    Por FDC en el foro Simulación
    Respuestas: 2
    Último Mensaje: 14/01/2008, 16:13
  5. Rayo impacta contra avión
    Por ave_252 en el foro Fotos y vídeos
    Respuestas: 10
    Último Mensaje: 16/09/2007, 10:12

Permisos de Publicación

  • No puedes crear nuevos temas
  • No puedes responder temas
  • No puedes subir archivos adjuntos
  • No puedes editar tus mensajes